Private Wetterstation Nrnberg - Katzwang
Wetterdaten: Mai 2011
Datum Temp. A. Feuchte A. Luftdruck Regen Wind Richtung Taupunkt Windchill Windben
01.05.2011 14,5 C 55 % 1007 hPa 0,0 l/m 4,4 km/h N-NO 5,2 C 13,9 C 5,4 km/h
02.05.2011 10,8 C 72 % 1005 hPa 5,2 l/m 11,8 km/h N-NO 5,8 C 7,3 C 17,9 km/h
03.05.2011 5,7 C 75 % 1012 hPa 4,1 l/m 4,6 km/h N-NO 1,5 C 4,6 C 5,6 km/h
04.05.2011 7,2 C 63 % 1018 hPa 0,0 l/m 0,7 km/h W-NW 0,1 C 7,2 C 1,7 km/h
05.05.2011 10,6 C 58 % 1021 hPa 0,0 l/m 1,0 km/h NO 1,8 C 10,6 C 2,0 km/h
06.05.2011 14,3 C 55 % 1020 hPa 0,0 l/m 4,9 km/h O-NO 4,4 C 13,5 C 7,2 km/h
07.05.2011 16,9 C 44 % 1018 hPa 0,0 l/m 6,2 km/h O 3,2 C 16,6 C 7,2 km/h
08.05.2011 17,8 C 46 % 1020 hPa 0,0 l/m 10,8 km/h O 5,2 C 15,9 C 14,1 km/h
09.05.2011 17,8 C 44 % 1022 hPa 0,0 l/m 9,4 km/h O 4,5 C 16,5 C 10,4 km/h
10.05.2011 18,3 C 53 % 1022 hPa 0,0 l/m 2,6 km/h O 7,6 C 18,2 C 3,6 km/h
11.05.2011 19,6 C 59 % 1018 hPa 0,0 l/m 2,9 km/h N 10,8 C 19,3 C 3,9 km/h
12.05.2011 16,3 C 76 % 1014 hPa 6,2 l/m 2,0 km/h W-NW 12,1 C 16,3 C 3,0 km/h
13.05.2011 14,9 C 59 % 1018 hPa 0,0 l/m 1,9 km/h O 6,5 C 14,8 C 2,9 km/h
14.05.2011 14,5 C 71 % 1013 hPa 2,1 l/m 1,7 km/h W-NW 8,9 C 14,5 C 2,7 km/h
15.05.2011 11,9 C 65 % 1018 hPa 0,0 l/m 1,0 km/h W-NW 5,3 C 11,9 C 2,0 km/h
16.05.2011 12,9 C 66 % 1022 hPa 0,0 l/m 5,3 km/h W-NW 6,5 C 11,6 C 9,9 km/h
17.05.2011 17,3 C 61 % 1019 hPa 0,0 l/m 1,4 km/h W-NW 9,5 C 17,3 C 2,4 km/h
18.05.2011 18,8 C 58 % 1015 hPa 0,0 l/m 2,2 km/h NO 9,7 C 18,4 C 3,2 km/h
19.05.2011 18,0 C 64 % 1014 hPa 0,5 l/m 3,3 km/h N-NO 10,9 C 17,5 C 4,3 km/h
20.05.2011 17,8 C 74 % 1016 hPa 12,9 l/m 3,4 km/h W-NW 12,2 C 17,7 C 4,4 km/h
21.05.2011 19,0 C 66 % 1018 hPa 0,0 l/m 1,2 km/h NO 11,8 C 19,0 C 2,2 km/h
22.05.2011 18,9 C 71 % 1016 hPa 0,5 l/m 3,1 km/h NO 13,2 C 18,9 C 4,1 km/h
23.05.2011 18,3 C 54 % 1022 hPa 0,0 l/m 1,4 km/h W-NW 8,3 C 18,3 C 2,4 km/h
24.05.2011 19,5 C 55 % 1020 hPa 0,0 l/m 9,4 km/h W-NW 9,6 C 18,2 C 13,8 km/h
25.05.2011 16,7 C 47 % 1022 hPa 0,0 l/m 2,4 km/h N-NO 4,5 C 16,5 C 3,4 km/h
26.05.2011 21,1 C 55 % 1011 hPa 0,0 l/m 8,7 km/h W-NW 11,1 C 20,7 C 14,5 km/h
27.05.2011 15,3 C 54 % 1013 hPa 0,0 l/m 4,6 km/h W-NW 5,8 C 14,6 C 7,2 km/h
28.05.2011 16,1 C 56 % 1015 hPa 0,0 l/m 0,3 km/h W-NW 6,9 C 16,1 C 1,4 km/h
29.05.2011 19,2 C 52 % 1015 hPa 0,0 l/m 3,4 km/h W-NW 8,4 C 19,0 C 7,2 km/h
30.05.2011 22,8 C 50 % 1012 hPa 0,0 l/m 7,7 km/h O 10,9 C 22,6 C 9,9 km/h
31.05.2011 20,8 C 63 % 1011 hPa 7,8 l/m 1,4 km/h W-NW 13,2 C 20,8 C 2,4 km/h
Min-Datum 04.05.11 09.05.11 02.05.11 8 Tage 01.05.11 - 04.05.11 03.05.11 01.05.11
Min-Zeit 05:50 16:20 17:30 - 00:10 - 05:50 10:40 00:10
Minimum -0,9 C 22 % 1003 hPa - 0,0 km/h - -3,1 C -2,7 C 1,0 km/h
Max-Datum 26.05.11 03.05.11 25.05.11 20.05.11 24.05.11 - 12.05.11 26.05.11 26.05.11
Max-Zeit 14:40 04:30 06:20 16:20 15:40 - 12:40 14:40 17:50
Maximum 32,7 C 91 % 1027 hPa 12,9 l/m 34,9 km/h
W-NW
- 16,6 C 32,6 C 62,6 km/h
W-NW
Durchschnitt 16,2 C 59 % 1016 hPa #39,4 l/m 4,0 km/h W-NW 7,6 C 15,7 C 5,9 km/h

Durchschnitt Minimum Temp.8,7 C
Durchschnitt Maximum Temp.23,6 C